createdAt,value
2022-08-18T00:00:04.065Z,95893
2022-08-18T00:01:04.067Z,95890
2022-08-18T00:02:04.090Z,95884
2022-08-18T00:03:11.745Z,95884
2022-08-18T00:04:15.363Z,95882
2022-08-18T00:06:04.077Z,95874
2022-08-18T00:07:04.060Z,95874
2022-08-18T00:08:04.078Z,95870
2022-08-18T00:09:04.087Z,95876
2022-08-18T00:10:04.089Z,95870
2022-08-18T00:11:04.089Z,95872
2022-08-18T00:12:04.122Z,95869
2022-08-18T00:13:04.085Z,95870
2022-08-18T00:14:04.100Z,95873
2022-08-18T00:15:04.114Z,95871
2022-08-18T00:17:04.117Z,95869
2022-08-18T00:18:04.111Z,95871
2022-08-18T00:19:09.087Z,95868
2022-08-18T00:20:04.115Z,95864
2022-08-18T00:22:04.125Z,95861
2022-08-18T00:23:04.118Z,95858
2022-08-18T00:25:04.134Z,95854
2022-08-18T00:26:04.119Z,95856
2022-08-18T00:28:04.140Z,95860
2022-08-18T00:29:04.126Z,95855
2022-08-18T00:30:04.124Z,95855
2022-08-18T00:31:04.136Z,95853
2022-08-18T00:32:04.145Z,95845
2022-08-18T00:33:04.166Z,95846
2022-08-18T00:34:04.153Z,95846
2022-08-18T00:35:04.158Z,95850
2022-08-18T00:36:04.142Z,95856
2022-08-18T00:37:04.149Z,95860
2022-08-18T00:38:04.156Z,95864
2022-08-18T00:39:04.164Z,95869
2022-08-18T00:40:04.211Z,95865
2022-08-18T00:41:04.160Z,95860
2022-08-18T00:42:04.167Z,95856
2022-08-18T00:43:04.163Z,95850
2022-08-18T00:44:04.180Z,95846
2022-08-18T00:45:04.163Z,95846
2022-08-18T00:46:04.167Z,95842
2022-08-18T00:47:04.165Z,95835
2022-08-18T00:48:04.173Z,95834
2022-08-18T00:49:04.194Z,95835
2022-08-18T00:50:04.188Z,95835
2022-08-18T00:51:04.196Z,95835
2022-08-18T00:52:04.196Z,95837
2022-08-18T00:53:04.196Z,95835
2022-08-18T00:54:04.207Z,95829
2022-08-18T00:55:04.189Z,95829
2022-08-18T00:56:04.193Z,95827
2022-08-18T00:57:04.187Z,95827
2022-08-18T00:59:04.193Z,95824
2022-08-18T01:00:04.199Z,95831
2022-08-18T01:01:04.225Z,95831
2022-08-18T01:02:04.203Z,95837
2022-08-18T01:03:04.227Z,95839
2022-08-18T01:04:04.211Z,95839
2022-08-18T01:05:04.216Z,95832
2022-08-18T01:06:04.213Z,95835
2022-08-18T01:07:04.217Z,95835
2022-08-18T01:08:04.214Z,95836
2022-08-18T01:09:04.231Z,95835
2022-08-18T01:10:04.222Z,95839
2022-08-18T01:11:04.246Z,95839
2022-08-18T01:12:27.923Z,95839
2022-08-18T01:13:04.240Z,95834
2022-08-18T01:15:04.246Z,95828
2022-08-18T01:16:04.260Z,95826
2022-08-18T01:17:04.260Z,95830
2022-08-18T01:18:04.241Z,95830
2022-08-18T01:19:04.251Z,95832
2022-08-18T01:20:04.260Z,95832
2022-08-18T01:21:04.270Z,95829
2022-08-18T01:22:04.280Z,95825
2022-08-18T01:23:04.242Z,95825
2022-08-18T01:24:04.248Z,95826
2022-08-18T01:25:04.285Z,95825
2022-08-18T01:26:04.339Z,95828
2022-08-18T01:27:04.285Z,95827
2022-08-18T01:28:04.279Z,95826
2022-08-18T01:29:04.296Z,95823
2022-08-18T01:30:04.271Z,95820
2022-08-18T01:31:04.267Z,95820
2022-08-18T01:32:04.310Z,95817
2022-08-18T01:33:04.284Z,95817
2022-08-18T01:34:04.300Z,95813
2022-08-18T01:35:04.340Z,95816
2022-08-18T01:36:04.298Z,95816
2022-08-18T01:37:04.281Z,95814
2022-08-18T01:39:04.311Z,95807
2022-08-18T01:41:20.988Z,95807
2022-08-18T01:42:04.338Z,95801
2022-08-18T01:43:04.310Z,95799
2022-08-18T01:44:04.331Z,95796
2022-08-18T01:45:04.402Z,95796
2022-08-18T01:46:04.323Z,95796
2022-08-18T01:47:04.330Z,95792
2022-08-18T01:48:04.790Z,95797
2022-08-18T01:50:04.330Z,95798
2022-08-18T01:52:04.334Z,95797
2022-08-18T01:53:04.338Z,95797
2022-08-18T01:54:04.349Z,95795
2022-08-18T01:55:04.358Z,95792
2022-08-18T01:56:04.374Z,95786
2022-08-18T01:57:04.370Z,95794
2022-08-18T01:58:04.357Z,95794
2022-08-18T01:59:04.349Z,95792
2022-08-18T02:01:04.355Z,95793
2022-08-18T02:03:04.352Z,95788
2022-08-18T02:04:31.062Z,95774
2022-08-18T02:05:04.371Z,95772
2022-08-18T02:06:04.412Z,95772
2022-08-18T02:07:04.465Z,95768
2022-08-18T02:08:04.383Z,95770
2022-08-18T02:09:04.362Z,95770
2022-08-18T02:10:04.384Z,95767
2022-08-18T02:13:04.376Z,95765
2022-08-18T02:16:04.398Z,95763
2022-08-18T02:17:04.437Z,95767
2022-08-18T02:18:04.401Z,95760
2022-08-18T02:19:04.401Z,95760
2022-08-18T02:20:04.429Z,95752
2022-08-18T02:21:04.409Z,95752
2022-08-18T02:22:04.435Z,95750
2022-08-18T02:23:04.427Z,95750
2022-08-18T02:24:04.405Z,95754
2022-08-18T02:25:04.434Z,95755
2022-08-18T02:26:04.415Z,95755
2022-08-18T02:27:04.428Z,95756
2022-08-18T02:28:04.444Z,95757
2022-08-18T02:30:04.423Z,95756
2022-08-18T02:31:04.444Z,95756
2022-08-18T02:32:04.425Z,95756
2022-08-18T02:33:04.452Z,95756
2022-08-18T02:34:04.458Z,95757
2022-08-18T02:35:04.461Z,95762
2022-08-18T02:36:04.440Z,95762
2022-08-18T02:38:04.438Z,95768
2022-08-18T02:39:04.445Z,95769
2022-08-18T02:42:04.463Z,95768
2022-08-18T02:43:04.466Z,95761
2022-08-18T02:46:04.462Z,95754
2022-08-18T02:47:04.470Z,95756
2022-08-18T02:48:04.467Z,95756
2022-08-18T02:51:04.492Z,95743
2022-08-18T02:52:04.496Z,95742
2022-08-18T02:53:04.484Z,95742
2022-08-18T02:56:04.492Z,95743
2022-08-18T02:57:04.510Z,95739
2022-08-18T03:00:04.492Z,95733
2022-08-18T03:02:04.531Z,95736
2022-08-18T03:03:04.523Z,95742
2022-08-18T03:04:04.510Z,95742
2022-08-18T03:05:04.522Z,95746
2022-08-18T03:07:04.535Z,95747
2022-08-18T03:08:04.527Z,95754
2022-08-18T03:09:04.552Z,95758
2022-08-18T03:10:31.598Z,95761
2022-08-18T03:11:04.537Z,95761
2022-08-18T03:14:04.536Z,95759
2022-08-18T03:16:04.544Z,95751
2022-08-18T03:17:04.559Z,95753
2022-08-18T03:18:04.571Z,95753
2022-08-18T03:19:04.558Z,95753
2022-08-18T03:20:04.551Z,95754
2022-08-18T03:21:04.580Z,95756
2022-08-18T03:22:04.560Z,95754
2022-08-18T03:23:05.811Z,95758
2022-08-18T03:24:09.290Z,95754
2022-08-18T03:25:04.568Z,95759
2022-08-18T03:26:04.584Z,95755
2022-08-18T03:27:04.585Z,95756
2022-08-18T03:28:04.580Z,95756
2022-08-18T03:29:04.603Z,95757
2022-08-18T03:30:11.271Z,95752
2022-08-18T03:31:04.604Z,95752
2022-08-18T03:32:04.596Z,95753
2022-08-18T03:33:04.604Z,95753
2022-08-18T03:34:04.585Z,95749
2022-08-18T03:35:04.603Z,95746
2022-08-18T03:36:04.602Z,95739
2022-08-18T03:37:04.637Z,95739
2022-08-18T03:38:04.594Z,95734
2022-08-18T03:39:04.619Z,95731
2022-08-18T03:40:04.666Z,95731
2022-08-18T03:41:04.613Z,95729
2022-08-18T03:42:04.615Z,95730
2022-08-18T03:43:04.617Z,95728
2022-08-18T03:44:04.621Z,95728
2022-08-18T03:45:13.357Z,95725
2022-08-18T03:46:04.616Z,95727
2022-08-18T03:47:04.641Z,95727
2022-08-18T03:49:04.630Z,95732
2022-08-18T03:50:04.646Z,95733
2022-08-18T03:55:04.651Z,95746
2022-08-18T03:58:04.663Z,95748
2022-08-18T04:00:04.666Z,95754
2022-08-18T04:01:04.720Z,95756
2022-08-18T04:02:04.665Z,95756
2022-08-18T04:04:04.647Z,95754
2022-08-18T04:05:05.380Z,95757
2022-08-18T04:06:04.696Z,95760
2022-08-18T04:08:04.687Z,95767
2022-08-18T04:09:04.690Z,95767
2022-08-18T04:10:04.684Z,95767
2022-08-18T04:11:04.692Z,95767
2022-08-18T04:12:04.700Z,95761
2022-08-18T04:14:04.692Z,95767
2022-08-18T04:15:04.723Z,95766
2022-08-18T04:16:04.715Z,95766
2022-08-18T04:18:04.769Z,95752
2022-08-18T04:19:04.724Z,95744
2022-08-18T04:20:04.715Z,95736
2022-08-18T04:21:04.714Z,95736
2022-08-18T04:22:04.709Z,95722
2022-08-18T04:23:04.734Z,95718
2022-08-18T04:24:04.716Z,95718
2022-08-18T04:25:04.715Z,95714
2022-08-18T04:26:04.715Z,95711
2022-08-18T04:27:04.733Z,95703
2022-08-18T04:28:04.734Z,95703
2022-08-18T04:29:04.734Z,95702
2022-08-18T04:30:04.761Z,95678
2022-08-18T04:31:04.764Z,95663
2022-08-18T04:32:04.735Z,95663
2022-08-18T04:33:04.742Z,95652
2022-08-18T04:34:04.757Z,95619
2022-08-18T04:35:04.737Z,95619
2022-08-18T04:36:04.757Z,95609
2022-08-18T04:37:04.745Z,95602
2022-08-18T04:39:04.938Z,95619
2022-08-18T04:40:20.222Z,95619
2022-08-18T04:40:33.229Z,95634
2022-08-18T04:41:07.497Z,95646
2022-08-18T04:42:04.759Z,95646
2022-08-18T04:43:04.767Z,95658
2022-08-18T04:44:04.801Z,95684
2022-08-18T04:45:04.785Z,95684
2022-08-18T04:46:04.776Z,95690
2022-08-18T04:47:04.792Z,95695
2022-08-18T04:48:04.789Z,95694
2022-08-18T04:49:04.790Z,95694
2022-08-18T04:50:04.783Z,95691
2022-08-18T04:51:04.794Z,95690
2022-08-18T04:52:26.848Z,95690
2022-08-18T04:53:04.781Z,95690
2022-08-18T04:54:04.796Z,95690
2022-08-18T04:55:04.791Z,95692
2022-08-18T04:56:04.824Z,95696
2022-08-18T04:57:04.810Z,95696
2022-08-18T04:58:04.797Z,95702
2022-08-18T04:59:04.814Z,95715
2022-08-18T05:00:04.814Z,95719
2022-08-18T05:01:04.863Z,95719
2022-08-18T05:02:04.815Z,95723
2022-08-18T05:03:04.845Z,95720
2022-08-18T05:04:04.851Z,95727
2022-08-18T05:05:04.834Z,95736
2022-08-18T05:06:04.825Z,95736
2022-08-18T05:07:04.852Z,95751
2022-08-18T05:08:04.837Z,95751
2022-08-18T05:09:04.845Z,95759
2022-08-18T05:10:04.838Z,95755
2022-08-18T05:11:04.841Z,95745
2022-08-18T05:13:04.895Z,95722
2022-08-18T05:14:04.865Z,95722
2022-08-18T05:15:04.859Z,95710
2022-08-18T05:16:11.931Z,95709
2022-08-18T05:18:04.882Z,95727
2022-08-18T05:19:05.947Z,95732
2022-08-18T05:20:04.878Z,95739
2022-08-18T05:21:04.884Z,95746
2022-08-18T05:22:04.885Z,95746
2022-08-18T05:23:04.871Z,95746
2022-08-18T05:24:04.886Z,95743
2022-08-18T05:25:04.897Z,95736
2022-08-18T05:26:04.898Z,95736
2022-08-18T05:27:04.950Z,95737
2022-08-18T05:28:04.929Z,95739
2022-08-18T05:29:19.015Z,95737
2022-08-18T05:30:04.914Z,95737
2022-08-18T05:32:04.891Z,95734
2022-08-18T05:35:04.910Z,95750
2022-08-18T05:37:04.904Z,95763
2022-08-18T05:38:04.906Z,95763
2022-08-18T05:39:04.904Z,95764
2022-08-18T05:40:10.385Z,95764
2022-08-18T05:41:04.944Z,95760
2022-08-18T05:42:04.931Z,95756
2022-08-18T05:43:04.926Z,95756
2022-08-18T05:44:04.948Z,95750
2022-08-18T05:45:04.942Z,95742
2022-08-18T05:46:04.950Z,95743
2022-08-18T05:47:04.953Z,95738
2022-08-18T05:48:04.962Z,95736
2022-08-18T05:49:04.971Z,95734
2022-08-18T05:50:04.949Z,95730
2022-08-18T05:51:04.950Z,95730
2022-08-18T05:52:04.960Z,95732
2022-08-18T05:53:05.558Z,95732
2022-08-18T05:54:04.977Z,95735
2022-08-18T05:55:04.971Z,95737
2022-08-18T05:56:04.949Z,95737
2022-08-18T05:57:04.982Z,95746
2022-08-18T05:58:04.976Z,95753
2022-08-18T05:59:04.972Z,95757
2022-08-18T06:00:05.009Z,95762
2022-08-18T06:01:04.992Z,95767
2022-08-18T06:02:04.990Z,95770
2022-08-18T06:03:05.035Z,95777
2022-08-18T06:04:04.986Z,95781
2022-08-18T06:05:04.986Z,95783
2022-08-18T06:06:04.972Z,95783
2022-08-18T06:07:04.987Z,95787
2022-08-18T06:08:05.003Z,95788
2022-08-18T06:09:05.001Z,95784
2022-08-18T06:10:05.013Z,95783
2022-08-18T06:11:05.008Z,95784
2022-08-18T06:12:05.011Z,95783
2022-08-18T06:13:05.007Z,95785
2022-08-18T06:14:04.998Z,95785
2022-08-18T06:15:05.965Z,95794
2022-08-18T06:16:05.025Z,95802
2022-08-18T06:17:05.019Z,95807
2022-08-18T06:18:05.024Z,95809
2022-08-18T06:19:05.059Z,95808
2022-08-18T06:20:05.026Z,95808
2022-08-18T06:21:05.039Z,95808
2022-08-18T06:22:05.050Z,95807
2022-08-18T06:23:05.017Z,95796
2022-08-18T06:24:05.064Z,95794
2022-08-18T06:26:05.042Z,95802
2022-08-18T06:27:05.046Z,95803
2022-08-18T06:28:05.055Z,95805
2022-08-18T06:29:05.064Z,95807
2022-08-18T06:30:05.045Z,95807
2022-08-18T06:31:06.371Z,95807
2022-08-18T06:34:05.129Z,95815
2022-08-18T06:35:05.057Z,95820
2022-08-18T06:36:05.085Z,95820
2022-08-18T06:39:05.063Z,95821
2022-08-18T06:41:05.089Z,95819
2022-08-18T06:42:05.076Z,95821
2022-08-18T06:43:05.084Z,95820
2022-08-18T06:44:05.079Z,95818
2022-08-18T06:45:05.098Z,95820
2022-08-18T06:46:05.107Z,95817
2022-08-18T06:48:05.105Z,95815
2022-08-18T06:49:05.096Z,95812
2022-08-18T06:50:05.116Z,95814
2022-08-18T06:53:05.147Z,95812
2022-08-18T06:54:05.124Z,95816
2022-08-18T06:55:05.114Z,95818
2022-08-18T06:56:05.122Z,95823
2022-08-18T06:57:05.132Z,95826
2022-08-18T06:58:05.158Z,95829
2022-08-18T06:59:05.122Z,95831
2022-08-18T07:01:05.239Z,95840
2022-08-18T07:03:05.171Z,95845
2022-08-18T07:04:05.157Z,95845
2022-08-18T07:06:05.165Z,95836
2022-08-18T07:07:05.163Z,95829
2022-08-18T07:08:05.163Z,95820
2022-08-18T07:09:05.127Z,95820
2022-08-18T07:11:05.146Z,95812
2022-08-18T07:12:05.160Z,95813
2022-08-18T07:17:05.210Z,95825
2022-08-18T07:18:05.181Z,95819
2022-08-18T07:19:05.159Z,95819
2022-08-18T07:21:05.178Z,95814
2022-08-18T07:22:05.226Z,95816
2022-08-18T07:24:23.585Z,95820
2022-08-18T07:25:05.625Z,95820
2022-08-18T07:26:05.184Z,95823
2022-08-18T07:27:05.235Z,95830
2022-08-18T07:28:05.180Z,95830
2022-08-18T07:29:05.187Z,95832
2022-08-18T07:30:05.178Z,95832
2022-08-18T07:31:16.360Z,95837
2022-08-18T07:32:05.233Z,95834
2022-08-18T07:33:05.231Z,95836
2022-08-18T07:34:05.206Z,95836
2022-08-18T07:35:05.206Z,95832
2022-08-18T07:36:05.219Z,95838
2022-08-18T07:37:05.234Z,95838
2022-08-18T07:38:24.570Z,95838
2022-08-18T07:39:05.207Z,95838
2022-08-18T07:40:05.272Z,95830
2022-08-18T07:41:05.221Z,95830
2022-08-18T07:42:05.257Z,95822
2022-08-18T07:43:05.219Z,95822
2022-08-18T07:44:07.573Z,95823
2022-08-18T07:45:05.251Z,95829
2022-08-18T07:46:05.237Z,95829
2022-08-18T07:47:05.290Z,95842
2022-08-18T07:48:15.891Z,95842
2022-08-18T07:49:05.617Z,95844
2022-08-18T07:50:27.057Z,95848
2022-08-18T07:51:08.702Z,95851
2022-08-18T07:52:05.266Z,95851
2022-08-18T07:53:05.258Z,95852
2022-08-18T07:54:05.264Z,95843
2022-08-18T07:55:05.275Z,95831
2022-08-18T07:56:05.265Z,95831
2022-08-18T07:57:05.284Z,95825
2022-08-18T07:58:05.260Z,95822
2022-08-18T08:00:05.260Z,95809
2022-08-18T08:01:05.291Z,95803
2022-08-18T08:02:05.385Z,95800
2022-08-18T08:03:05.278Z,95800
2022-08-18T08:04:05.299Z,95797
2022-08-18T08:05:05.285Z,95800
2022-08-18T08:06:05.299Z,95800
2022-08-18T08:08:05.323Z,95800
2022-08-18T08:09:05.313Z,95802
2022-08-18T08:10:05.307Z,95802
2022-08-18T08:11:05.310Z,95801
2022-08-18T08:12:05.325Z,95801
2022-08-18T08:13:09.332Z,95797
2022-08-18T08:14:05.306Z,95797
2022-08-18T08:15:05.319Z,95791
2022-08-18T08:16:05.310Z,95793
2022-08-18T08:17:05.337Z,95793
2022-08-18T08:19:12.218Z,95787
2022-08-18T08:20:05.316Z,95781
2022-08-18T08:21:05.333Z,95780
2022-08-18T08:22:05.357Z,95775
2022-08-18T08:23:05.349Z,95780
2022-08-18T08:24:05.332Z,95779
2022-08-18T08:25:13.664Z,95779
2022-08-18T08:26:05.330Z,95785
2022-08-18T08:29:05.374Z,95779
2022-08-18T08:30:05.366Z,95776
2022-08-18T08:31:25.506Z,95770
2022-08-18T08:32:05.350Z,95770
2022-08-18T08:33:05.361Z,95772
2022-08-18T08:34:05.991Z,95774
2022-08-18T08:35:05.377Z,95781
2022-08-18T08:36:05.368Z,95781
2022-08-18T08:37:05.380Z,95783
2022-08-18T08:38:36.493Z,95787
2022-08-18T08:39:05.408Z,95792
2022-08-18T08:40:05.499Z,95792
2022-08-18T08:41:05.398Z,95796
2022-08-18T08:42:31.678Z,95795
2022-08-18T08:43:05.374Z,95797
2022-08-18T08:44:05.425Z,95801
2022-08-18T08:45:05.394Z,95804
2022-08-18T08:46:05.400Z,95809
2022-08-18T08:47:05.404Z,95811
2022-08-18T08:48:09.327Z,95814
2022-08-18T08:49:05.444Z,95813
2022-08-18T08:50:05.422Z,95813
2022-08-18T08:51:05.436Z,95813
2022-08-18T08:52:05.429Z,95813
2022-08-18T08:53:05.454Z,95809
2022-08-18T08:54:05.462Z,95810
2022-08-18T08:55:05.431Z,95810
2022-08-18T08:56:05.417Z,95810
2022-08-18T08:57:05.428Z,95810
2022-08-18T08:58:05.421Z,95807
2022-08-18T08:59:05.473Z,95802
2022-08-18T09:00:05.438Z,95793
2022-08-18T09:01:05.454Z,95791
2022-08-18T09:02:05.494Z,95791
2022-08-18T09:03:05.456Z,95787
2022-08-18T09:04:05.479Z,95787
2022-08-18T09:05:08.215Z,95789
2022-08-18T09:06:05.477Z,95782
2022-08-18T09:08:05.448Z,95781
2022-08-18T09:09:05.503Z,95781
2022-08-18T09:10:05.468Z,95781
2022-08-18T09:11:05.482Z,95784
2022-08-18T09:12:05.478Z,95785
2022-08-18T09:13:06.789Z,95785
2022-08-18T09:14:05.499Z,95791
2022-08-18T09:15:05.472Z,95793
2022-08-18T09:16:13.431Z,95790
2022-08-18T09:17:05.520Z,95787
2022-08-18T09:18:05.479Z,95787
2022-08-18T09:19:05.492Z,95782
2022-08-18T09:20:05.494Z,95777
2022-08-18T09:21:05.479Z,95774
2022-08-18T09:23:05.510Z,95770
2022-08-18T09:24:05.533Z,95772
2022-08-18T09:25:05.537Z,95776
2022-08-18T09:26:05.498Z,95780
2022-08-18T09:27:05.529Z,95781
2022-08-18T09:28:10.779Z,95780
2022-08-18T09:29:05.535Z,95787
2022-08-18T09:30:05.526Z,95787
2022-08-18T09:31:05.519Z,95783
2022-08-18T09:32:05.510Z,95780
2022-08-18T09:33:15.135Z,95770
2022-08-18T09:34:10.769Z,95761
2022-08-18T09:35:06.087Z,95747
2022-08-18T09:36:05.521Z,95747
2022-08-18T09:37:05.516Z,95742
2022-08-18T09:38:05.542Z,95738
2022-08-18T09:39:05.561Z,95737
2022-08-18T09:41:05.627Z,95740
2022-08-18T09:42:05.560Z,95739
2022-08-18T09:43:05.973Z,95739
2022-08-18T09:44:05.583Z,95736
2022-08-18T09:45:05.545Z,95736
2022-08-18T09:46:05.551Z,95739
2022-08-18T09:47:05.571Z,95748
2022-08-18T09:48:08.775Z,95748
2022-08-18T09:49:05.592Z,95746
2022-08-18T09:50:05.584Z,95745
2022-08-18T09:51:05.560Z,95736
2022-08-18T09:52:05.568Z,95732
2022-08-18T09:53:05.632Z,95727
2022-08-18T09:54:05.619Z,95722
2022-08-18T09:55:05.635Z,95725
2022-08-18T09:56:05.769Z,95727
2022-08-18T09:57:05.558Z,95727
2022-08-18T09:58:05.588Z,95736
2022-08-18T09:59:10.925Z,95736
2022-08-18T10:00:05.594Z,95744
2022-08-18T10:01:05.624Z,95743
2022-08-18T10:02:05.607Z,95744
2022-08-18T10:03:05.595Z,95744
2022-08-18T10:04:05.630Z,95743
2022-08-18T10:06:05.592Z,95733
2022-08-18T10:07:05.640Z,95721
2022-08-18T10:08:05.600Z,95721
2022-08-18T10:09:18.006Z,95717
2022-08-18T10:11:00.016Z,95708
2022-08-18T10:11:08.962Z,95708
2022-08-18T10:12:05.610Z,95706
2022-08-18T10:13:05.637Z,95707
2022-08-18T10:14:05.668Z,95708
2022-08-18T10:15:05.641Z,95705
2022-08-18T10:16:10.777Z,95702
2022-08-18T10:18:05.650Z,95699
2022-08-18T10:19:05.684Z,95694
2022-08-18T10:20:05.647Z,95697
2022-08-18T10:21:05.651Z,95697
2022-08-18T10:22:05.664Z,95694
2022-08-18T10:25:23.114Z,95691
2022-08-18T10:26:10.068Z,95693
2022-08-18T10:27:05.677Z,95696
2022-08-18T10:28:05.671Z,95699
2022-08-18T10:29:05.707Z,95696
2022-08-18T10:30:05.690Z,95697
2022-08-18T10:31:09.739Z,95699
2022-08-18T10:32:05.689Z,95701
2022-08-18T10:34:16.619Z,95698
2022-08-18T10:35:05.696Z,95698
2022-08-18T10:36:05.709Z,95698
2022-08-18T10:37:06.303Z,95698
2022-08-18T10:38:05.703Z,95696
2022-08-18T10:39:05.718Z,95693
2022-08-18T10:40:05.742Z,95693
2022-08-18T10:45:06.692Z,95686
2022-08-18T10:46:25.121Z,95680
2022-08-18T10:47:12.288Z,95677
2022-08-18T10:48:11.896Z,95672
2022-08-18T10:49:05.735Z,95672
2022-08-18T10:50:05.755Z,95668
2022-08-18T10:51:05.734Z,95663
2022-08-18T10:52:05.742Z,95663
2022-08-18T10:54:05.728Z,95665
2022-08-18T10:55:06.270Z,95662
2022-08-18T10:57:05.737Z,95660
2022-08-18T10:58:05.745Z,95660
2022-08-18T10:59:05.760Z,95653
2022-08-18T11:00:05.778Z,95653
2022-08-18T11:01:05.767Z,95647
2022-08-18T11:02:05.772Z,95647
2022-08-18T11:03:39.955Z,95647
2022-08-18T11:04:14.549Z,95644
2022-08-18T11:05:05.789Z,95641
2022-08-18T11:06:05.777Z,95643
2022-08-18T11:07:07.642Z,95643
2022-08-18T11:08:15.699Z,95646
2022-08-18T11:09:05.761Z,95647
2022-08-18T11:10:28.274Z,95649
2022-08-18T11:11:32.487Z,95648
2022-08-18T11:12:05.797Z,95649
2022-08-18T11:13:09.729Z,95650
2022-08-18T11:14:05.786Z,95647
2022-08-18T11:15:22.336Z,95652
2022-08-18T11:16:05.781Z,95652
2022-08-18T11:17:07.048Z,95654
2022-08-18T11:19:05.800Z,95655
2022-08-18T11:20:05.837Z,95646
2022-08-18T11:21:08.203Z,95647
2022-08-18T11:22:05.803Z,95647
2022-08-18T11:24:05.805Z,95640
2022-08-18T11:25:05.831Z,95640
2022-08-18T11:27:15.219Z,95637
2022-08-18T11:28:05.819Z,95637
2022-08-18T11:29:05.832Z,95633
2022-08-18T11:31:06.597Z,95628
2022-08-18T11:32:05.854Z,95628
2022-08-18T11:33:05.858Z,95628
2022-08-18T11:35:05.878Z,95634
2022-08-18T11:36:05.861Z,95635
2022-08-18T11:37:09.084Z,95635
2022-08-18T11:38:05.864Z,95637
2022-08-18T11:39:05.851Z,95637
2022-08-18T11:40:05.925Z,95641
2022-08-18T11:41:09.906Z,95641
2022-08-18T11:42:05.876Z,95642
2022-08-18T11:43:05.864Z,95642
2022-08-18T11:44:05.850Z,95642
2022-08-18T11:45:05.867Z,95644
2022-08-18T11:46:05.897Z,95645
2022-08-18T11:47:05.863Z,95650
2022-08-18T11:48:05.899Z,95645
2022-08-18T11:49:05.894Z,95647
2022-08-18T11:50:05.881Z,95649
2022-08-18T11:51:05.919Z,95648
2022-08-18T11:52:05.877Z,95648
2022-08-18T11:53:05.903Z,95651
2022-08-18T11:54:05.887Z,95651
2022-08-18T11:55:16.655Z,95651
2022-08-18T11:56:13.236Z,95658
2022-08-18T11:57:10.226Z,95658
2022-08-18T11:58:05.913Z,95652
2022-08-18T11:59:05.898Z,95655
2022-08-18T12:00:05.917Z,95655
2022-08-18T12:01:05.928Z,95653
2022-08-18T12:02:05.924Z,95656
2022-08-18T12:04:05.924Z,95657
2022-08-18T12:05:08.549Z,95650
2022-08-18T12:06:05.951Z,95650
2022-08-18T12:07:05.926Z,95651
2022-08-18T12:08:10.798Z,95651
2022-08-18T12:09:05.942Z,95652
2022-08-18T12:10:18.337Z,95653
2022-08-18T12:11:27.103Z,95653
2022-08-18T12:12:05.930Z,95652
2022-08-18T12:13:05.952Z,95655
2022-08-18T12:15:13.792Z,95656
2022-08-18T12:16:05.989Z,95656
2022-08-18T12:17:05.943Z,95656
2022-08-18T12:18:05.961Z,95654
2022-08-18T12:19:05.953Z,95652
2022-08-18T12:20:06.017Z,95654
2022-08-18T12:21:05.975Z,95654
2022-08-18T12:22:11.799Z,95654
2022-08-18T12:23:05.975Z,95649
2022-08-18T12:24:06.003Z,95641
2022-08-18T12:26:05.990Z,95642
2022-08-18T12:28:11.052Z,95636
2022-08-18T12:29:08.917Z,95639
2022-08-18T12:30:06.068Z,95639
2022-08-18T12:31:14.916Z,95635
2022-08-18T12:32:08.578Z,95635
2022-08-18T12:33:12.403Z,95635
2022-08-18T12:34:05.983Z,95635
2022-08-18T12:35:09.424Z,95624
2022-08-18T12:36:06.021Z,95624
2022-08-18T12:37:14.280Z,95626
2022-08-18T12:39:06.005Z,95621
2022-08-18T12:40:06.260Z,95620
2022-08-18T12:41:06.063Z,95616
2022-08-18T12:42:06.012Z,95616
2022-08-18T12:43:06.114Z,95618
2022-08-18T12:44:09.959Z,95613
2022-08-18T12:45:06.043Z,95615
2022-08-18T12:46:06.048Z,95611
2022-08-18T12:47:06.039Z,95611
2022-08-18T12:48:06.649Z,95616
2022-08-18T12:49:06.035Z,95616
2022-08-18T12:50:06.078Z,95615
2022-08-18T12:51:06.065Z,95620
2022-08-18T12:52:06.028Z,95620
2022-08-18T12:57:06.799Z,95620
2022-08-18T12:58:06.057Z,95615
2022-08-18T12:59:06.048Z,95615
2022-08-18T13:00:06.115Z,95617
2022-08-18T13:02:06.081Z,95611
2022-08-18T13:03:06.086Z,95613
2022-08-18T13:04:12.393Z,95609
2022-08-18T13:05:06.159Z,95615
2022-08-18T13:06:06.080Z,95613
2022-08-18T13:07:06.246Z,95613
2022-08-18T13:08:06.107Z,95616
2022-08-18T13:09:16.260Z,95614
2022-08-18T13:13:06.109Z,95613
2022-08-18T13:14:08.989Z,95612
2022-08-18T13:15:06.125Z,95610
2022-08-18T13:16:06.125Z,95610
2022-08-18T13:17:07.433Z,95615
2022-08-18T13:18:06.148Z,95611
2022-08-18T13:19:06.287Z,95611
2022-08-18T13:20:06.111Z,95614
2022-08-18T13:21:07.272Z,95614
2022-08-18T13:22:06.125Z,95615
2022-08-18T13:23:06.120Z,95615
2022-08-18T13:24:06.141Z,95619
2022-08-18T13:25:06.137Z,95619
2022-08-18T13:26:06.147Z,95619
2022-08-18T13:27:18.529Z,95619
2022-08-18T13:28:06.141Z,95619
2022-08-18T13:29:06.157Z,95625
2022-08-18T13:30:30.176Z,95625
2022-08-18T13:31:06.138Z,95625
2022-08-18T13:32:06.137Z,95624
2022-08-18T13:33:56.062Z,95624
2022-08-18T13:34:06.572Z,95623
2022-08-18T13:35:09.102Z,95623
2022-08-18T13:36:06.150Z,95623
2022-08-18T13:37:06.164Z,95626
2022-08-18T13:38:14.543Z,95623
2022-08-18T13:39:06.170Z,95625
2022-08-18T13:40:06.229Z,95625
2022-08-18T13:41:06.426Z,95629
2022-08-18T13:42:26.091Z,95629
2022-08-18T13:43:06.509Z,95626
2022-08-18T13:44:06.183Z,95629
2022-08-18T13:45:22.731Z,95629
2022-08-18T13:46:06.192Z,95628
2022-08-18T13:47:06.203Z,95633
2022-08-18T13:48:06.183Z,95633
2022-08-18T13:49:06.199Z,95633
2022-08-18T13:50:06.209Z,95630
2022-08-18T13:51:06.197Z,95630
2022-08-18T13:52:12.254Z,95624
2022-08-18T13:53:06.247Z,95627
2022-08-18T13:54:26.963Z,95627
2022-08-18T13:55:08.490Z,95627
2022-08-18T13:56:06.203Z,95627
2022-08-18T13:57:06.760Z,95625
2022-08-18T13:58:17.385Z,95626
2022-08-18T14:00:06.213Z,95626
2022-08-18T14:01:39.726Z,95627
2022-08-18T14:02:08.399Z,95627
2022-08-18T14:05:06.239Z,95629
2022-08-18T14:08:06.258Z,95632
2022-08-18T14:09:19.785Z,95632
2022-08-18T14:10:06.436Z,95635
2022-08-18T14:11:06.258Z,95635
2022-08-18T14:12:06.232Z,95633
2022-08-18T14:13:09.390Z,95632
2022-08-18T14:14:06.267Z,95631
2022-08-18T14:15:06.260Z,95628
2022-08-18T14:16:06.286Z,95628
2022-08-18T14:17:06.276Z,95632
2022-08-18T14:18:06.308Z,95635
2022-08-18T14:19:10.004Z,95633
2022-08-18T14:20:06.276Z,95636
2022-08-18T14:21:06.277Z,95637
2022-08-18T14:22:06.268Z,95638
2022-08-18T14:24:06.306Z,95640
2022-08-18T14:25:06.283Z,95640
2022-08-18T14:28:06.298Z,95641
2022-08-18T14:29:06.328Z,95641
2022-08-18T14:31:07.093Z,95645
2022-08-18T14:32:06.303Z,95639
2022-08-18T14:34:06.302Z,95640
2022-08-18T14:37:06.367Z,95644
2022-08-18T14:38:06.325Z,95646
2022-08-18T14:39:06.335Z,95645
2022-08-18T14:40:06.410Z,95645
2022-08-18T14:41:06.327Z,95644
2022-08-18T14:42:06.318Z,95646
2022-08-18T14:45:26.436Z,95646
2022-08-18T14:46:06.323Z,95645
2022-08-18T14:47:06.331Z,95647
2022-08-18T14:48:07.634Z,95651
2022-08-18T14:49:06.327Z,95651
2022-08-18T14:50:06.338Z,95653
2022-08-18T14:51:06.343Z,95652
2022-08-18T14:52:10.626Z,95652
2022-08-18T14:53:06.351Z,95656
2022-08-18T14:54:06.358Z,95658